createdAt,value
2023-01-06T00:00:31.155Z,7.60
2023-01-06T00:04:50.928Z,8.20
2023-01-06T00:08:55.254Z,7.93
2023-01-06T00:12:57.042Z,9.60
2023-01-06T00:16:59.000Z,9.63
2023-01-06T00:21:02.038Z,8.10
2023-01-06T00:25:04.017Z,8.93
2023-01-06T00:29:06.076Z,10.32
2023-01-06T00:33:08.711Z,8.77
2023-01-06T00:37:11.078Z,8.18
2023-01-06T00:41:32.951Z,10.35
2023-01-06T00:45:35.533Z,10.93
2023-01-06T00:49:37.455Z,12.60
2023-01-06T00:53:40.833Z,11.60
2023-01-06T00:57:42.541Z,12.18
2023-01-06T01:01:46.268Z,10.25
2023-01-06T01:05:48.119Z,12.18
2023-01-06T01:09:50.176Z,13.48
2023-01-06T01:13:51.848Z,10.70
2023-01-06T01:17:53.859Z,13.30
2023-01-06T01:21:55.459Z,14.10
2023-01-06T01:25:57.875Z,10.98
2023-01-06T01:29:59.563Z,11.57
2023-01-06T01:34:02.066Z,13.35
2023-01-06T01:38:03.910Z,11.23
2023-01-06T01:42:10.698Z,12.85
2023-01-06T01:46:14.814Z,12.02
2023-01-06T01:50:21.845Z,12.32
2023-01-06T01:54:28.565Z,12.93
2023-01-06T01:58:36.714Z,10.93
2023-01-06T02:02:39.134Z,10.27
2023-01-06T02:06:41.693Z,11.25
2023-01-06T02:10:44.140Z,12.15
2023-01-06T02:14:46.162Z,13.57
2023-01-06T02:19:18.331Z,14.43
2023-01-06T02:23:23.092Z,10.18
2023-01-06T02:27:45.727Z,10.73
2023-01-06T02:32:27.300Z,14.57
2023-01-06T02:36:45.990Z,11.70
2023-01-06T02:41:13.880Z,11.95
2023-01-06T02:45:35.596Z,11.55
2023-01-06T02:50:00.419Z,11.57
2023-01-06T02:54:14.613Z,9.75
2023-01-06T02:58:35.094Z,12.70
2023-01-06T03:02:45.525Z,11.85
2023-01-06T03:06:50.543Z,7.43
2023-01-06T03:10:55.140Z,7.57
2023-01-06T03:14:58.869Z,5.47
2023-01-06T03:19:00.970Z,5.68
2023-01-06T03:23:03.494Z,8.23
2023-01-06T03:27:06.399Z,7.10
2023-01-06T03:31:13.019Z,6.20
2023-01-06T03:35:36.659Z,10.57
2023-01-06T03:40:05.445Z,22.98
2023-01-06T03:44:16.791Z,7.60
2023-01-06T03:48:56.229Z,7.03
2023-01-06T03:53:22.515Z,8.20
2023-01-06T03:57:48.853Z,9.43
2023-01-06T04:01:51.420Z,7.50
2023-01-06T04:05:55.492Z,7.55
2023-01-06T04:09:58.088Z,11.93
2023-01-06T04:14:00.878Z,8.65
2023-01-06T04:18:04.231Z,7.45
2023-01-06T04:22:09.941Z,8.55
2023-01-06T04:26:12.361Z,9.20
2023-01-06T04:30:21.209Z,10.40
2023-01-06T04:34:23.142Z,10.18
2023-01-06T04:38:25.339Z,9.25
2023-01-06T04:42:27.274Z,9.30
2023-01-06T04:46:29.266Z,9.50
2023-01-06T04:50:30.950Z,10.90
2023-01-06T04:54:32.926Z,15.57
2023-01-06T04:58:36.027Z,9.02
2023-01-06T05:02:38.008Z,10.82
2023-01-06T05:06:40.074Z,9.95
2023-01-06T05:10:42.055Z,9.00
2023-01-06T05:14:43.695Z,10.93
2023-01-06T05:18:46.012Z,9.60
2023-01-06T05:22:47.842Z,10.18
2023-01-06T05:26:49.775Z,7.38
2023-01-06T05:30:52.239Z,8.13
2023-01-06T05:34:54.243Z,9.73
2023-01-06T05:38:56.024Z,12.18
2023-01-06T05:42:58.689Z,11.20
2023-01-06T05:47:00.348Z,8.32
2023-01-06T05:51:08.260Z,7.97
2023-01-06T05:55:10.555Z,7.10
2023-01-06T05:59:12.560Z,10.25
2023-01-06T06:03:14.202Z,9.70
2023-01-06T06:07:16.335Z,8.23
2023-01-06T06:11:19.663Z,8.05
2023-01-06T06:15:21.801Z,6.95
2023-01-06T06:19:23.525Z,8.27
2023-01-06T06:23:25.771Z,9.55
2023-01-06T06:27:28.023Z,9.57
2023-01-06T06:31:30.073Z,9.30
2023-01-06T06:35:31.922Z,8.75
2023-01-06T06:39:33.877Z,8.45
2023-01-06T06:43:35.979Z,8.73
2023-01-06T06:47:37.794Z,9.07
2023-01-06T06:51:39.840Z,8.48
2023-01-06T06:55:41.778Z,11.75
2023-01-06T06:59:43.440Z,8.32
2023-01-06T07:03:45.968Z,8.68
2023-01-06T07:07:47.758Z,9.75
2023-01-06T07:11:49.732Z,10.60
2023-01-06T07:15:51.793Z,9.13
2023-01-06T07:19:53.477Z,11.85
2023-01-06T07:23:55.412Z,12.18
2023-01-06T07:27:59.277Z,10.00
2023-01-06T07:32:01.304Z,9.02
2023-01-06T07:36:03.346Z,9.20
2023-01-06T07:40:05.936Z,10.13
2023-01-06T07:44:07.627Z,8.32
2023-01-06T07:48:10.045Z,8.57
2023-01-06T07:52:11.706Z,10.15
2023-01-06T07:56:14.459Z,10.52
2023-01-06T08:00:16.534Z,10.00
2023-01-06T08:04:18.238Z,8.52
2023-01-06T08:08:20.214Z,10.23
2023-01-06T08:12:21.983Z,9.20
2023-01-06T08:16:23.936Z,12.05
2023-01-06T08:20:25.634Z,13.85
2023-01-06T08:24:31.708Z,9.07
2023-01-06T08:28:33.863Z,10.20
2023-01-06T08:32:35.843Z,11.48
2023-01-06T08:36:38.691Z,10.48
2023-01-06T08:40:41.438Z,12.93
2023-01-06T08:44:43.131Z,10.25
2023-01-06T08:48:46.247Z,12.05
2023-01-06T08:52:48.355Z,13.15
2023-01-06T08:56:50.387Z,13.80
2023-01-06T09:00:52.230Z,13.93
2023-01-06T09:04:54.263Z,13.32
2023-01-06T09:08:57.072Z,16.70
2023-01-06T09:12:59.220Z,13.82
2023-01-06T09:17:01.256Z,14.05
2023-01-06T09:21:03.681Z,13.65
2023-01-06T09:25:06.255Z,12.35
2023-01-06T09:29:08.396Z,14.95
2023-01-06T09:33:10.307Z,11.82
2023-01-06T09:37:11.955Z,14.23
2023-01-06T09:41:37.637Z,10.45
2023-01-06T09:45:48.688Z,10.50
2023-01-06T09:49:57.464Z,13.63
2023-01-06T09:54:15.645Z,14.38
2023-01-06T09:58:21.961Z,11.57
2023-01-06T10:02:36.913Z,10.25
2023-01-06T10:06:48.590Z,13.93
2023-01-06T10:11:03.580Z,15.10
2023-01-06T10:15:14.774Z,12.60
2023-01-06T10:19:28.392Z,23.08
2023-01-06T10:23:47.715Z,14.68
2023-01-06T10:28:08.972Z,12.90
2023-01-06T10:32:16.568Z,18.40
2023-01-06T10:36:29.154Z,18.08
2023-01-06T10:40:32.225Z,16.83
2023-01-06T10:44:34.240Z,16.20
2023-01-06T10:48:36.329Z,18.50
2023-01-06T10:52:38.761Z,17.80
2023-01-06T10:56:45.670Z,22.85
2023-01-06T11:01:11.860Z,15.73
2023-01-06T11:05:16.154Z,19.73
2023-01-06T11:09:41.142Z,21.67
2023-01-06T11:13:49.696Z,15.75
2023-01-06T11:17:51.754Z,19.73
2023-01-06T11:21:53.797Z,23.13
2023-01-06T11:26:03.798Z,16.25
2023-01-06T11:30:27.423Z,27.08
2023-01-06T11:34:29.805Z,21.15
2023-01-06T11:38:31.630Z,18.02
2023-01-06T11:42:33.806Z,22.40
2023-01-06T11:46:37.691Z,22.20
2023-01-06T11:50:39.765Z,19.05
2023-01-06T11:54:42.426Z,21.48
2023-01-06T11:59:03.463Z,17.23
2023-01-06T12:03:10.864Z,18.23
2023-01-06T12:07:38.689Z,19.98
2023-01-06T12:11:47.891Z,17.45
2023-01-06T12:16:00.001Z,17.48
2023-01-06T12:20:05.807Z,23.20
2023-01-06T12:24:10.220Z,22.30
2023-01-06T12:28:28.714Z,20.08
2023-01-06T12:32:40.935Z,18.83
2023-01-06T12:36:57.205Z,22.52
2023-01-06T12:41:17.050Z,23.10
2023-01-06T12:45:28.996Z,23.02
2023-01-06T12:49:40.100Z,22.23
2023-01-06T12:53:47.869Z,17.88
2023-01-06T12:57:58.115Z,19.63
2023-01-06T13:02:18.619Z,18.23
2023-01-06T13:06:37.155Z,17.92
2023-01-06T13:11:16.511Z,18.00
2023-01-06T13:15:34.212Z,21.05
2023-01-06T13:19:41.679Z,28.88
2023-01-06T13:24:17.746Z,24.33
2023-01-06T13:28:37.303Z,24.42
2023-01-06T13:33:08.276Z,25.60
2023-01-06T13:37:37.192Z,24.02
2023-01-06T13:41:41.254Z,26.23
2023-01-06T13:45:48.283Z,20.05
2023-01-06T13:49:50.771Z,22.70
2023-01-06T13:53:54.732Z,24.13
2023-01-06T13:57:58.903Z,24.33
2023-01-06T14:02:00.970Z,22.27
2023-01-06T14:06:03.864Z,27.42
2023-01-06T14:10:27.162Z,29.40
2023-01-06T14:14:38.533Z,28.77
2023-01-06T14:18:47.203Z,25.40
2023-01-06T14:23:05.905Z,29.73
2023-01-06T14:27:12.015Z,31.17
2023-01-06T14:31:26.467Z,35.33
2023-01-06T14:35:44.007Z,28.02
2023-01-06T14:39:48.850Z,28.85
2023-01-06T14:44:26.192Z,32.78
2023-01-06T14:48:32.447Z,32.25
2023-01-06T14:52:47.770Z,36.17
2023-01-06T14:56:54.959Z,33.30
2023-01-06T15:00:57.104Z,42.33
2023-01-06T15:04:59.474Z,42.70
2023-01-06T15:09:17.477Z,36.65
2023-01-06T15:13:22.999Z,33.33
2023-01-06T15:17:24.699Z,36.40
2023-01-06T15:21:27.577Z,37.38
2023-01-06T15:25:32.765Z,42.90
2023-01-06T15:29:35.564Z,51.92
2023-01-06T15:33:40.013Z,51.00
2023-01-06T15:37:43.361Z,44.65
2023-01-06T15:41:45.275Z,51.28
2023-01-06T15:45:59.946Z,46.45
2023-01-06T15:50:05.624Z,42.42
2023-01-06T15:54:13.760Z,44.53
2023-01-06T15:58:27.502Z,45.38
2023-01-06T16:02:31.156Z,43.28
2023-01-06T16:06:37.116Z,39.90
2023-01-06T16:10:39.308Z,42.28
2023-01-06T16:14:46.065Z,42.92
2023-01-06T16:18:48.241Z,48.22
2023-01-06T16:22:55.065Z,45.25
2023-01-06T16:27:04.387Z,48.65
2023-01-06T16:31:12.263Z,53.33
2023-01-06T16:39:20.008Z,42.22
2023-01-06T16:43:22.011Z,45.53
2023-01-06T16:47:23.696Z,51.25
2023-01-06T16:51:28.928Z,48.03
2023-01-06T16:55:31.423Z,55.63
2023-01-06T16:59:36.301Z,50.47
2023-01-06T17:03:38.636Z,51.83
2023-01-06T17:07:40.605Z,56.42
2023-01-06T17:11:42.369Z,53.72
2023-01-06T17:15:44.844Z,56.75
2023-01-06T17:19:46.641Z,51.72
2023-01-06T17:23:56.838Z,52.05
2023-01-06T17:27:58.692Z,52.65
2023-01-06T17:32:02.977Z,55.85
2023-01-06T17:36:06.148Z,59.72
2023-01-06T17:40:16.988Z,58.40
2023-01-06T17:44:27.477Z,60.63
2023-01-06T17:48:29.509Z,68.13
2023-01-06T17:52:37.529Z,66.68
2023-01-06T17:56:39.637Z,71.25
2023-01-06T18:00:41.540Z,70.32
2023-01-06T18:04:43.656Z,78.68
2023-01-06T18:08:46.768Z,79.38
2023-01-06T18:12:48.796Z,80.80
2023-01-06T18:16:54.298Z,77.57
2023-01-06T18:21:00.872Z,74.47
2023-01-06T18:25:02.915Z,82.88
2023-01-06T18:29:19.503Z,84.25
2023-01-06T18:33:21.589Z,82.85
2023-01-06T18:37:27.767Z,88.85
2023-01-06T18:41:29.456Z,89.97
2023-01-06T18:45:36.107Z,92.18
2023-01-06T18:49:38.295Z,87.68
2023-01-06T18:53:43.420Z,91.50
2023-01-06T18:57:51.150Z,82.50
2023-01-06T19:01:53.603Z,98.72
2023-01-06T19:06:10.543Z,86.78
2023-01-06T19:10:32.626Z,91.20
2023-01-06T19:14:48.231Z,88.65
2023-01-06T19:18:49.966Z,87.32
2023-01-06T19:22:55.123Z,80.55
2023-01-06T19:26:58.916Z,84.57
2023-01-06T19:31:03.000Z,85.65
2023-01-06T19:35:23.800Z,80.20
2023-01-06T19:39:30.780Z,83.80
2023-01-06T19:43:34.890Z,87.55
2023-01-06T19:47:39.130Z,78.95
2023-01-06T19:51:41.137Z,87.55
2023-01-06T19:55:43.107Z,87.63
2023-01-06T19:59:44.855Z,82.28
2023-01-06T20:03:48.686Z,78.82
2023-01-06T20:07:50.466Z,96.47
2023-01-06T20:11:52.489Z,85.85
2023-01-06T20:15:54.259Z,78.03
2023-01-06T20:19:56.361Z,80.13
2023-01-06T20:23:58.562Z,80.88
2023-01-06T20:28:00.588Z,85.78
2023-01-06T20:32:02.412Z,98.13
2023-01-06T20:36:04.979Z,83.93
2023-01-06T20:40:07.693Z,85.88
2023-01-06T20:44:09.730Z,92.75
2023-01-06T20:48:11.469Z,85.38
2023-01-06T20:52:13.496Z,94.00
2023-01-06T20:56:15.378Z,88.07
2023-01-06T21:00:17.797Z,82.63
2023-01-06T21:04:19.574Z,92.47
2023-01-06T21:08:21.616Z,94.65
2023-01-06T21:12:23.387Z,89.65
2023-01-06T21:16:25.476Z,94.97
2023-01-06T21:20:27.269Z,98.50
2023-01-06T21:24:29.374Z,116.38
2023-01-06T21:28:31.120Z,116.75
2023-01-06T21:32:33.043Z,103.38
2023-01-06T21:36:34.794Z,110.70
2023-01-06T21:40:36.845Z,107.47
2023-01-06T21:44:38.549Z,108.20
2023-01-06T21:48:40.460Z,110.32
2023-01-06T21:52:43.419Z,114.90
2023-01-06T21:56:45.574Z,107.53
2023-01-06T22:00:47.210Z,110.63
2023-01-06T22:04:51.608Z,136.57
2023-01-06T22:08:54.407Z,107.38
2023-01-06T22:12:59.162Z,115.88
2023-01-06T22:17:01.270Z,114.93
2023-01-06T22:21:03.567Z,122.13
2023-01-06T22:25:06.317Z,108.60
2023-01-06T22:29:08.359Z,105.53
2023-01-06T22:33:10.132Z,106.50
2023-01-06T22:37:12.203Z,108.45
2023-01-06T22:41:14.023Z,108.40
2023-01-06T22:45:16.177Z,113.93
2023-01-06T22:49:17.893Z,118.18
2023-01-06T22:53:19.839Z,114.07
2023-01-06T22:57:21.601Z,129.50
2023-01-06T23:01:23.979Z,108.65
2023-01-06T23:05:25.835Z,117.35
2023-01-06T23:09:27.772Z,108.32
2023-01-06T23:13:30.639Z,106.95
2023-01-06T23:17:32.984Z,116.00
2023-01-06T23:21:35.211Z,125.78
2023-01-06T23:25:37.225Z,115.70
2023-01-06T23:29:38.966Z,113.28
2023-01-06T23:33:43.663Z,138.40
2023-01-06T23:37:45.413Z,120.63
2023-01-06T23:41:48.425Z,120.43
2023-01-06T23:45:50.127Z,127.15
2023-01-06T23:49:52.091Z,120.57
2023-01-06T23:53:54.059Z,106.80
2023-01-06T23:57:55.756Z,119.63
